createdAt,value
2022-08-26T00:00:04.538Z,8.10
2022-08-26T00:00:39.861Z,7.80
2022-08-26T00:01:14.955Z,8.20
2022-08-26T00:01:50.245Z,8.30
2022-08-26T00:02:25.598Z,8.10
2022-08-26T00:03:00.635Z,8.00
2022-08-26T00:03:36.001Z,7.20
2022-08-26T00:04:11.190Z,8.10
2022-08-26T00:04:46.442Z,8.60
2022-08-26T00:05:21.966Z,7.80
2022-08-26T00:05:57.403Z,8.40
2022-08-26T00:06:32.528Z,8.10
2022-08-26T00:07:08.035Z,8.00
2022-08-26T00:07:50.278Z,8.70
2022-08-26T00:08:25.277Z,9.20
2022-08-26T00:09:00.602Z,8.60
2022-08-26T00:09:37.259Z,7.90
2022-08-26T00:10:11.438Z,8.20
2022-08-26T00:10:46.967Z,9.00
2022-08-26T00:11:26.934Z,8.10
2022-08-26T00:11:57.350Z,8.50
2022-08-26T00:12:37.474Z,8.70
2022-08-26T00:13:07.849Z,8.60
2022-08-26T00:13:47.909Z,8.20
2022-08-26T00:14:18.222Z,8.50
2022-08-26T00:14:53.322Z,8.20
2022-08-26T00:15:28.429Z,8.10
2022-08-26T00:16:03.847Z,8.50
2022-08-26T00:16:40.978Z,9.10
2022-08-26T00:17:14.098Z,8.30
2022-08-26T00:17:49.092Z,8.50
2022-08-26T00:18:24.172Z,8.80
2022-08-26T00:18:59.413Z,8.70
2022-08-26T00:19:34.700Z,8.10
2022-08-26T00:20:09.798Z,8.30
2022-08-26T00:20:44.973Z,8.30
2022-08-26T00:21:20.285Z,8.90
2022-08-26T00:21:55.810Z,8.50
2022-08-26T00:22:30.773Z,8.10
2022-08-26T00:23:06.275Z,9.20
2022-08-26T00:23:41.589Z,8.50
2022-08-26T00:24:16.682Z,8.60
2022-08-26T00:24:52.285Z,9.60
2022-08-26T00:25:27.705Z,9.20
2022-08-26T00:26:03.214Z,8.70
2022-08-26T00:26:38.301Z,8.70
2022-08-26T00:27:13.489Z,8.50
2022-08-26T00:27:48.723Z,8.50
2022-08-26T00:28:24.110Z,8.50
2022-08-26T00:28:59.384Z,8.40
2022-08-26T00:29:35.546Z,8.50
2022-08-26T00:30:09.907Z,8.30
2022-08-26T00:30:45.509Z,8.30
2022-08-26T00:31:20.747Z,8.80
2022-08-26T00:31:56.274Z,9.30
2022-08-26T00:32:31.522Z,8.80
2022-08-26T00:33:07.150Z,8.30
2022-08-26T00:33:42.136Z,8.70
2022-08-26T00:34:19.356Z,8.60
2022-08-26T00:34:53.009Z,8.70
2022-08-26T00:35:28.062Z,8.50
2022-08-26T00:36:03.407Z,8.00
2022-08-26T00:36:38.721Z,8.50
2022-08-26T00:37:16.129Z,8.30
2022-08-26T00:37:48.951Z,8.50
2022-08-26T00:38:24.137Z,9.30
2022-08-26T00:38:59.266Z,9.00
2022-08-26T00:39:34.842Z,8.50
2022-08-26T00:40:10.222Z,9.30
2022-08-26T00:40:45.404Z,8.60
2022-08-26T00:41:21.045Z,8.90
2022-08-26T00:41:56.123Z,8.40
2022-08-26T00:42:31.445Z,8.20
2022-08-26T00:43:07.247Z,9.00
2022-08-26T00:43:47.405Z,8.20
2022-08-26T00:44:17.505Z,8.20
2022-08-26T00:44:52.768Z,8.50
2022-08-26T00:45:27.964Z,9.30
2022-08-26T00:46:03.476Z,8.90
2022-08-26T00:46:38.635Z,8.80
2022-08-26T00:47:13.839Z,8.60
2022-08-26T00:47:49.018Z,9.20
2022-08-26T00:48:24.308Z,9.30
2022-08-26T00:48:59.615Z,10.10
2022-08-26T00:49:34.818Z,9.60
2022-08-26T00:50:10.020Z,9.30
2022-08-26T00:50:45.318Z,9.50
2022-08-26T00:51:20.938Z,9.10
2022-08-26T00:51:56.246Z,9.20
2022-08-26T00:52:31.843Z,9.40
2022-08-26T00:53:07.324Z,9.10
2022-08-26T00:53:42.553Z,8.60
2022-08-26T00:54:17.559Z,9.40
2022-08-26T00:54:53.167Z,9.30
2022-08-26T00:55:37.714Z,9.50
2022-08-26T00:56:03.653Z,8.70
2022-08-26T00:56:38.911Z,9.40
2022-08-26T00:57:16.110Z,9.50
2022-08-26T00:57:49.434Z,8.70
2022-08-26T00:58:24.917Z,8.80
2022-08-26T00:59:00.121Z,8.80
2022-08-26T00:59:35.312Z,9.00
2022-08-26T01:00:10.907Z,8.70
2022-08-26T01:00:46.149Z,8.80
2022-08-26T01:01:23.041Z,9.10
2022-08-26T01:01:56.751Z,9.10
2022-08-26T01:02:32.097Z,8.90
2022-08-26T01:03:07.628Z,9.80
2022-08-26T01:03:42.937Z,8.80
2022-08-26T01:04:18.133Z,9.30
2022-08-26T01:04:55.850Z,9.30
2022-08-26T01:05:29.176Z,8.90
2022-08-26T01:06:04.419Z,8.10
2022-08-26T01:06:39.814Z,8.80
2022-08-26T01:07:15.371Z,9.30
2022-08-26T01:07:50.682Z,9.10
2022-08-26T01:08:25.983Z,9.90
2022-08-26T01:09:01.067Z,10.00
2022-08-26T01:09:36.554Z,8.90
2022-08-26T01:10:11.768Z,9.10
2022-08-26T01:10:46.964Z,9.50
2022-08-26T01:11:22.285Z,8.70
2022-08-26T01:11:57.486Z,9.20
2022-08-26T01:12:32.781Z,9.30
2022-08-26T01:13:08.354Z,8.60
2022-08-26T01:13:43.191Z,9.30
2022-08-26T01:14:18.365Z,9.80
2022-08-26T01:14:53.576Z,10.60
2022-08-26T01:15:29.060Z,10.70
2022-08-26T01:16:04.438Z,9.50
2022-08-26T01:16:39.571Z,8.80
2022-08-26T01:17:14.793Z,8.80
2022-08-26T01:17:49.893Z,9.90
2022-08-26T01:18:25.170Z,9.40
2022-08-26T01:19:00.553Z,8.90
2022-08-26T01:19:35.770Z,9.10
2022-08-26T01:20:18.071Z,10.00
2022-08-26T01:20:53.289Z,10.30
2022-08-26T01:21:29.454Z,10.50
2022-08-26T01:22:04.399Z,10.10
2022-08-26T01:22:39.498Z,10.00
2022-08-26T01:23:14.925Z,9.20
2022-08-26T01:23:50.206Z,9.50
2022-08-26T01:24:25.645Z,9.80
2022-08-26T01:25:00.627Z,10.50
2022-08-26T01:25:35.693Z,9.80
2022-08-26T01:26:19.653Z,9.80
2022-08-26T01:26:46.319Z,10.10
2022-08-26T01:27:21.424Z,9.20
2022-08-26T01:27:56.549Z,9.50
2022-08-26T01:28:31.835Z,9.50
2022-08-26T01:29:07.081Z,9.60
2022-08-26T01:29:42.667Z,9.10
2022-08-26T01:30:18.271Z,9.70
2022-08-26T01:30:53.352Z,10.30
2022-08-26T01:31:28.623Z,10.10
2022-08-26T01:32:03.672Z,9.60
2022-08-26T01:32:39.043Z,9.00
2022-08-26T01:33:14.091Z,9.30
2022-08-26T01:33:49.224Z,9.60
2022-08-26T01:34:24.606Z,9.80
2022-08-26T01:34:59.925Z,9.30
2022-08-26T01:35:35.024Z,10.40
2022-08-26T01:36:10.396Z,9.70
2022-08-26T01:36:50.591Z,9.30
2022-08-26T01:37:21.017Z,9.50
2022-08-26T01:37:56.299Z,10.40
2022-08-26T01:38:31.563Z,9.40
2022-08-26T01:39:07.351Z,8.70
2022-08-26T01:39:41.976Z,9.80
2022-08-26T01:40:17.163Z,9.60
2022-08-26T01:40:52.688Z,9.20
2022-08-26T01:41:29.224Z,9.00
2022-08-26T01:42:03.475Z,8.80
2022-08-26T01:42:38.737Z,8.70
2022-08-26T01:43:13.962Z,8.50
2022-08-26T01:43:49.349Z,9.00
2022-08-26T01:44:24.579Z,9.80
2022-08-26T01:44:59.768Z,9.90
2022-08-26T01:45:35.225Z,9.80
2022-08-26T01:46:10.559Z,9.70
2022-08-26T01:46:45.666Z,10.10
2022-08-26T01:47:20.763Z,10.10
2022-08-26T01:47:56.885Z,8.90
2022-08-26T01:48:31.468Z,9.50
2022-08-26T01:49:06.781Z,9.70
2022-08-26T01:49:42.144Z,9.50
2022-08-26T01:50:28.175Z,9.40
2022-08-26T01:50:52.637Z,9.90
2022-08-26T01:51:27.705Z,9.90
2022-08-26T01:52:02.934Z,9.40
2022-08-26T01:52:38.124Z,9.40
2022-08-26T01:53:13.363Z,9.50
2022-08-26T01:53:48.536Z,9.20
2022-08-26T01:54:23.852Z,9.40
2022-08-26T01:54:59.149Z,9.70
2022-08-26T01:55:34.976Z,9.10
2022-08-26T01:56:09.880Z,9.60
2022-08-26T01:56:45.003Z,9.80
2022-08-26T01:57:20.197Z,10.10
2022-08-26T01:57:56.261Z,9.20
2022-08-26T01:58:30.606Z,9.70
2022-08-26T01:59:05.713Z,9.40
2022-08-26T01:59:40.801Z,9.30
2022-08-26T02:00:16.322Z,10.10
2022-08-26T02:00:51.787Z,9.50
2022-08-26T02:01:29.135Z,9.30
2022-08-26T02:02:02.153Z,10.80
2022-08-26T02:02:37.474Z,11.60
2022-08-26T02:03:12.966Z,10.60
2022-08-26T02:03:48.077Z,10.30
2022-08-26T02:04:23.234Z,10.20
2022-08-26T02:04:58.731Z,9.70
2022-08-26T02:05:34.003Z,10.20
2022-08-26T02:06:09.203Z,10.60
2022-08-26T02:06:44.104Z,10.20
2022-08-26T02:07:19.416Z,10.20
2022-08-26T02:07:54.511Z,10.60
2022-08-26T02:08:30.132Z,10.00
2022-08-26T02:09:05.336Z,9.70
2022-08-26T02:09:41.373Z,10.10
2022-08-26T02:10:16.058Z,10.30
2022-08-26T02:10:51.567Z,10.40
2022-08-26T02:11:26.958Z,11.00
2022-08-26T02:12:01.972Z,10.50
2022-08-26T02:12:37.558Z,10.50
2022-08-26T02:13:12.867Z,10.30
2022-08-26T02:13:48.347Z,9.90
2022-08-26T02:14:23.659Z,9.30
2022-08-26T02:14:58.953Z,9.50
2022-08-26T02:15:34.381Z,9.50
2022-08-26T02:16:09.581Z,9.90
2022-08-26T02:16:44.940Z,10.00
2022-08-26T02:17:21.251Z,10.90
2022-08-26T02:17:55.802Z,10.60
2022-08-26T02:18:30.899Z,10.10
2022-08-26T02:19:06.302Z,9.60
2022-08-26T02:19:41.499Z,9.80
2022-08-26T02:20:16.597Z,10.60
2022-08-26T02:20:51.890Z,11.20
2022-08-26T02:21:27.216Z,11.30
2022-08-26T02:22:02.549Z,10.50
2022-08-26T02:22:37.956Z,10.20
2022-08-26T02:23:12.774Z,9.60
2022-08-26T02:23:47.894Z,9.70
2022-08-26T02:24:22.879Z,10.60
2022-08-26T02:24:57.890Z,11.10
2022-08-26T02:25:33.080Z,10.70
2022-08-26T02:26:08.498Z,11.40
2022-08-26T02:26:43.786Z,11.20
2022-08-26T02:27:18.805Z,10.70
2022-08-26T02:27:54.190Z,9.80
2022-08-26T02:28:29.390Z,10.60
2022-08-26T02:29:04.677Z,10.90
2022-08-26T02:29:39.779Z,10.90
2022-08-26T02:30:15.374Z,10.60
2022-08-26T02:30:50.491Z,10.80
2022-08-26T02:31:25.952Z,10.80
2022-08-26T02:32:01.116Z,11.30
2022-08-26T02:32:36.521Z,10.90
2022-08-26T02:33:11.544Z,11.10
2022-08-26T02:33:46.633Z,11.00
2022-08-26T02:34:21.822Z,10.60
2022-08-26T02:34:56.926Z,10.60
2022-08-26T02:35:32.119Z,10.90
2022-08-26T02:36:07.421Z,10.20
2022-08-26T02:36:42.717Z,10.20
2022-08-26T02:37:18.145Z,10.40
2022-08-26T02:37:53.445Z,10.20
2022-08-26T02:38:28.767Z,9.80
2022-08-26T02:39:03.872Z,10.30
2022-08-26T02:39:39.088Z,10.20
2022-08-26T02:40:14.031Z,10.00
2022-08-26T02:40:49.089Z,10.10
2022-08-26T02:41:24.521Z,10.90
2022-08-26T02:41:59.756Z,10.80
2022-08-26T02:42:34.855Z,10.50
2022-08-26T02:43:10.447Z,10.10
2022-08-26T02:43:45.443Z,9.40
2022-08-26T02:44:20.627Z,10.10
2022-08-26T02:44:56.043Z,10.40
2022-08-26T02:45:31.114Z,10.70
2022-08-26T02:46:06.419Z,10.80
2022-08-26T02:46:41.573Z,10.90
2022-08-26T02:47:16.800Z,11.00
2022-08-26T02:47:52.397Z,11.00
2022-08-26T02:48:27.211Z,10.80
2022-08-26T02:49:02.512Z,11.10
2022-08-26T02:49:37.920Z,11.50
2022-08-26T02:50:13.111Z,11.70
2022-08-26T02:50:48.639Z,10.50
2022-08-26T02:51:24.031Z,10.30
2022-08-26T02:51:59.346Z,11.10
2022-08-26T02:52:34.527Z,10.60
2022-08-26T02:53:10.041Z,10.70
2022-08-26T02:53:45.150Z,10.30
2022-08-26T02:54:20.470Z,10.20
2022-08-26T02:54:55.916Z,10.30
2022-08-26T02:55:31.212Z,10.80
2022-08-26T02:56:06.415Z,10.30
2022-08-26T02:56:41.747Z,11.50
2022-08-26T02:57:16.952Z,10.70
2022-08-26T02:57:52.049Z,9.40
2022-08-26T02:58:26.962Z,10.00
2022-08-26T02:59:02.071Z,10.80
2022-08-26T02:59:37.368Z,10.20
2022-08-26T03:00:12.676Z,10.60
2022-08-26T03:00:52.991Z,11.30
2022-08-26T03:01:23.203Z,10.70
2022-08-26T03:01:58.507Z,10.40
2022-08-26T03:02:33.676Z,10.90
2022-08-26T03:03:08.815Z,10.70
2022-08-26T03:03:43.871Z,11.10
2022-08-26T03:04:19.184Z,10.70
2022-08-26T03:04:57.897Z,10.20
2022-08-26T03:05:29.784Z,11.10
2022-08-26T03:06:05.284Z,10.60
2022-08-26T03:06:40.700Z,11.00
2022-08-26T03:07:15.816Z,10.50
2022-08-26T03:07:51.218Z,10.80
2022-08-26T03:08:26.443Z,11.40
2022-08-26T03:09:01.657Z,11.40
2022-08-26T03:09:36.879Z,11.20
2022-08-26T03:10:12.174Z,10.90
2022-08-26T03:10:48.043Z,11.30
2022-08-26T03:11:23.191Z,10.90
2022-08-26T03:11:58.325Z,10.80
2022-08-26T03:12:33.428Z,11.10
2022-08-26T03:13:08.758Z,11.60
2022-08-26T03:13:43.832Z,11.60
2022-08-26T03:14:19.043Z,10.90
2022-08-26T03:14:54.134Z,10.50
2022-08-26T03:15:29.235Z,11.50
2022-08-26T03:16:04.406Z,11.00
2022-08-26T03:16:39.727Z,10.80
2022-08-26T03:17:14.840Z,11.50
2022-08-26T03:17:50.518Z,12.10
2022-08-26T03:18:25.852Z,11.90
2022-08-26T03:19:01.078Z,11.10
2022-08-26T03:19:36.371Z,11.00
2022-08-26T03:20:11.672Z,11.30
2022-08-26T03:20:46.969Z,11.20
2022-08-26T03:21:22.193Z,11.20
2022-08-26T03:21:57.912Z,11.30
2022-08-26T03:22:32.599Z,11.40
2022-08-26T03:23:08.182Z,10.00
2022-08-26T03:23:42.989Z,10.80
2022-08-26T03:24:18.194Z,12.10
2022-08-26T03:24:53.689Z,13.40
2022-08-26T03:25:29.173Z,13.30
2022-08-26T03:26:04.369Z,12.80
2022-08-26T03:26:39.889Z,12.30
2022-08-26T03:27:15.535Z,12.60
2022-08-26T03:27:50.746Z,12.30
2022-08-26T03:28:27.253Z,11.60
2022-08-26T03:29:01.149Z,12.40
2022-08-26T03:29:36.357Z,12.30
2022-08-26T03:30:11.750Z,11.90
2022-08-26T03:30:46.782Z,12.00
2022-08-26T03:31:22.063Z,12.00
2022-08-26T03:31:57.221Z,12.10
2022-08-26T03:32:32.524Z,12.70
2022-08-26T03:33:08.127Z,11.90
2022-08-26T03:33:43.109Z,12.40
2022-08-26T03:34:18.433Z,13.70
2022-08-26T03:34:53.441Z,11.80
2022-08-26T03:35:28.846Z,11.90
2022-08-26T03:36:04.228Z,12.00
2022-08-26T03:36:39.344Z,11.90
2022-08-26T03:37:14.536Z,11.90
2022-08-26T03:37:50.127Z,12.60
2022-08-26T03:38:25.226Z,11.90
2022-08-26T03:39:00.733Z,11.40
2022-08-26T03:39:36.343Z,12.50
2022-08-26T03:40:11.818Z,12.50
2022-08-26T03:40:46.871Z,11.80
2022-08-26T03:41:22.162Z,11.90
2022-08-26T03:41:57.586Z,12.80
2022-08-26T03:42:32.782Z,12.40
2022-08-26T03:43:09.536Z,13.40
2022-08-26T03:43:43.218Z,13.70
2022-08-26T03:44:18.323Z,12.50
2022-08-26T03:44:53.534Z,11.90
2022-08-26T03:45:29.100Z,11.50
2022-08-26T03:46:04.269Z,11.80
2022-08-26T03:46:39.518Z,12.70
2022-08-26T03:47:14.845Z,12.40
2022-08-26T03:47:50.143Z,13.20
2022-08-26T03:48:25.641Z,12.60
2022-08-26T03:49:00.552Z,12.30
2022-08-26T03:49:35.539Z,11.80
2022-08-26T03:50:10.655Z,12.60
2022-08-26T03:50:45.842Z,13.40
2022-08-26T03:51:21.258Z,13.80
2022-08-26T03:51:56.666Z,12.90
2022-08-26T03:52:31.953Z,13.20
2022-08-26T03:53:11.762Z,13.60
2022-08-26T03:53:42.446Z,13.20
2022-08-26T03:54:17.646Z,13.60
2022-08-26T03:54:53.036Z,15.10
2022-08-26T03:55:28.550Z,13.30
2022-08-26T03:56:03.871Z,12.60
2022-08-26T03:56:38.899Z,13.60
2022-08-26T03:57:14.199Z,14.10
2022-08-26T03:57:49.199Z,13.70
2022-08-26T03:58:24.101Z,12.30
2022-08-26T03:58:59.297Z,12.10
2022-08-26T03:59:34.801Z,12.60
2022-08-26T04:00:10.199Z,12.70
2022-08-26T04:00:45.324Z,12.50
2022-08-26T04:01:20.833Z,13.40
2022-08-26T04:01:55.870Z,13.10
2022-08-26T04:02:31.413Z,13.20
2022-08-26T04:03:06.624Z,13.80
2022-08-26T04:03:41.670Z,13.10
2022-08-26T04:04:16.751Z,13.10
2022-08-26T04:04:52.079Z,13.30
2022-08-26T04:05:27.087Z,14.10
2022-08-26T04:06:02.487Z,13.70
2022-08-26T04:06:37.819Z,12.80
2022-08-26T04:07:13.003Z,13.20
2022-08-26T04:07:48.598Z,13.00
2022-08-26T04:08:23.523Z,12.50
2022-08-26T04:08:59.197Z,13.00
2022-08-26T04:09:35.233Z,13.80
2022-08-26T04:10:09.892Z,13.90
2022-08-26T04:10:45.201Z,13.60
2022-08-26T04:11:20.474Z,14.50
2022-08-26T04:11:55.679Z,14.20
2022-08-26T04:12:30.872Z,13.20
2022-08-26T04:13:06.003Z,13.70
2022-08-26T04:13:40.912Z,14.60
2022-08-26T04:14:17.649Z,14.00
2022-08-26T04:14:51.492Z,13.40
2022-08-26T04:15:27.129Z,13.50
2022-08-26T04:16:02.591Z,13.90
2022-08-26T04:16:38.035Z,13.80
2022-08-26T04:17:13.557Z,14.20
2022-08-26T04:17:48.951Z,14.00
2022-08-26T04:18:24.146Z,14.30
2022-08-26T04:18:59.360Z,14.10
2022-08-26T04:19:34.649Z,14.20
2022-08-26T04:20:09.960Z,15.30
2022-08-26T04:20:45.064Z,14.50
2022-08-26T04:21:20.578Z,15.00
2022-08-26T04:21:55.801Z,15.10
2022-08-26T04:22:31.201Z,14.10
2022-08-26T04:23:06.558Z,14.20
2022-08-26T04:23:47.654Z,14.40
2022-08-26T04:24:17.660Z,15.40
2022-08-26T04:24:52.167Z,16.00
2022-08-26T04:25:27.279Z,15.30
2022-08-26T04:26:02.176Z,16.00
2022-08-26T04:26:39.525Z,15.90
2022-08-26T04:27:12.969Z,13.70
2022-08-26T04:27:48.172Z,15.00
2022-08-26T04:28:23.259Z,17.00
2022-08-26T04:28:58.246Z,17.50
2022-08-26T04:29:33.665Z,16.80
2022-08-26T04:30:09.597Z,16.30
2022-08-26T04:30:44.683Z,16.40
2022-08-26T04:31:20.138Z,16.90
2022-08-26T04:31:55.802Z,17.60
2022-08-26T04:32:30.244Z,17.70
2022-08-26T04:33:12.928Z,17.20
2022-08-26T04:33:41.856Z,16.60
2022-08-26T04:34:16.586Z,16.80
2022-08-26T04:34:51.710Z,17.10
2022-08-26T04:35:26.881Z,17.00
2022-08-26T04:36:02.120Z,16.50
2022-08-26T04:36:37.411Z,16.70
2022-08-26T04:37:12.638Z,16.80
2022-08-26T04:37:47.619Z,17.80
2022-08-26T04:38:22.855Z,19.10
2022-08-26T04:38:58.155Z,19.60
2022-08-26T04:39:33.276Z,20.80
2022-08-26T04:40:08.570Z,19.50
2022-08-26T04:40:46.751Z,18.00
2022-08-26T04:41:19.329Z,18.00
2022-08-26T04:41:54.747Z,18.80
2022-08-26T04:42:29.854Z,17.90
2022-08-26T04:43:05.135Z,20.00
2022-08-26T04:43:39.859Z,21.20
2022-08-26T04:44:14.966Z,18.30
2022-08-26T04:44:50.085Z,18.60
2022-08-26T04:45:25.115Z,20.00
2022-08-26T04:46:00.204Z,21.20
2022-08-26T04:46:35.519Z,22.20
2022-08-26T04:47:10.966Z,21.30
2022-08-26T04:47:46.374Z,22.70
2022-08-26T04:48:21.908Z,22.20
2022-08-26T04:48:56.996Z,22.60
2022-08-26T04:49:35.541Z,24.30
2022-08-26T04:50:07.860Z,25.00
2022-08-26T04:50:43.064Z,23.10
2022-08-26T04:51:18.371Z,22.60
2022-08-26T04:51:53.674Z,23.50
2022-08-26T04:52:28.885Z,25.90
2022-08-26T04:53:04.003Z,25.10
2022-08-26T04:53:39.455Z,24.40
2022-08-26T04:54:15.050Z,25.50
2022-08-26T04:54:50.476Z,26.10
2022-08-26T04:55:38.537Z,25.20
2022-08-26T04:56:00.908Z,25.50
2022-08-26T04:56:36.254Z,25.80
2022-08-26T04:57:11.633Z,26.50
2022-08-26T04:57:46.853Z,26.20
2022-08-26T04:58:22.292Z,26.10
2022-08-26T04:58:57.729Z,26.50
2022-08-26T04:59:36.012Z,27.70
2022-08-26T05:00:08.450Z,27.80
2022-08-26T05:00:43.491Z,26.70
2022-08-26T05:01:18.645Z,28.00
2022-08-26T05:01:54.128Z,29.70
2022-08-26T05:02:29.455Z,27.80
2022-08-26T05:03:04.726Z,30.00
2022-08-26T05:03:40.146Z,28.80
2022-08-26T05:04:16.207Z,29.90
2022-08-26T05:04:51.893Z,29.60
2022-08-26T05:05:25.760Z,28.70
2022-08-26T05:06:01.051Z,30.00
2022-08-26T05:06:37.198Z,31.30
2022-08-26T05:07:11.996Z,31.50
2022-08-26T05:07:47.429Z,31.00
2022-08-26T05:08:22.631Z,30.40
2022-08-26T05:08:58.157Z,29.00
2022-08-26T05:09:33.454Z,28.60
2022-08-26T05:10:08.918Z,29.90
2022-08-26T05:10:43.800Z,31.30
2022-08-26T05:11:19.324Z,31.50
2022-08-26T05:11:54.913Z,29.60
2022-08-26T05:12:30.155Z,30.10
2022-08-26T05:13:05.451Z,31.40
2022-08-26T05:13:40.878Z,30.40
2022-08-26T05:14:15.898Z,30.00
2022-08-26T05:14:51.124Z,31.40
2022-08-26T05:15:26.322Z,30.70
2022-08-26T05:16:01.965Z,31.40
2022-08-26T05:16:37.463Z,30.10
2022-08-26T05:17:14.991Z,31.10
2022-08-26T05:17:48.044Z,31.30
2022-08-26T05:18:23.286Z,30.90
2022-08-26T05:18:58.882Z,32.90
2022-08-26T05:19:34.023Z,31.80
2022-08-26T05:20:09.534Z,31.60
2022-08-26T05:20:44.887Z,33.90
2022-08-26T05:21:20.547Z,33.40
2022-08-26T05:21:55.885Z,31.40
2022-08-26T05:22:31.292Z,29.20
2022-08-26T05:23:06.933Z,29.70
2022-08-26T05:23:42.166Z,32.40
2022-08-26T05:24:17.907Z,32.50
2022-08-26T05:24:52.596Z,31.50
2022-08-26T05:25:27.811Z,31.50
2022-08-26T05:26:04.942Z,31.80
2022-08-26T05:26:38.460Z,31.00
2022-08-26T05:27:13.539Z,30.90
2022-08-26T05:27:48.770Z,31.50
2022-08-26T05:28:23.786Z,30.80
2022-08-26T05:28:58.901Z,28.70
2022-08-26T05:29:34.305Z,28.40
2022-08-26T05:30:09.822Z,28.10
2022-08-26T05:30:44.996Z,30.50
2022-08-26T05:31:20.309Z,30.00
2022-08-26T05:31:56.028Z,28.10
2022-08-26T05:32:30.984Z,27.60
2022-08-26T05:33:06.214Z,28.60
2022-08-26T05:33:41.674Z,28.50
2022-08-26T05:34:16.875Z,29.60
2022-08-26T05:34:52.295Z,29.30
2022-08-26T05:35:27.527Z,29.20
2022-08-26T05:36:02.731Z,30.80
2022-08-26T05:36:38.052Z,30.10
2022-08-26T05:37:13.679Z,30.70
2022-08-26T05:37:48.067Z,30.90
2022-08-26T05:38:23.332Z,31.00
2022-08-26T05:38:58.374Z,30.50
2022-08-26T05:39:33.429Z,31.20
2022-08-26T05:40:08.949Z,31.50
2022-08-26T05:40:44.149Z,30.10
2022-08-26T05:41:19.571Z,31.60
2022-08-26T05:41:54.777Z,31.00
2022-08-26T05:42:29.887Z,31.00
2022-08-26T05:43:06.204Z,33.30
2022-08-26T05:43:41.601Z,32.00
2022-08-26T05:44:16.989Z,31.10
2022-08-26T05:44:55.391Z,32.60
2022-08-26T05:45:27.436Z,31.80
2022-08-26T05:46:02.641Z,30.80
2022-08-26T05:46:38.114Z,31.30
2022-08-26T05:47:13.272Z,32.40
2022-08-26T05:47:48.521Z,33.40
2022-08-26T05:48:24.438Z,32.30
2022-08-26T05:48:58.920Z,29.60
2022-08-26T05:49:34.346Z,30.40
2022-08-26T05:50:09.645Z,30.80
2022-08-26T05:50:45.156Z,33.60
2022-08-26T05:51:23.982Z,34.40
2022-08-26T05:51:55.617Z,34.30
2022-08-26T05:52:30.916Z,33.90
2022-08-26T05:53:06.037Z,31.40
2022-08-26T05:53:43.988Z,31.10
2022-08-26T05:54:22.084Z,32.80
2022-08-26T05:54:52.254Z,32.90
2022-08-26T05:55:27.588Z,33.30
2022-08-26T05:56:02.874Z,34.50
2022-08-26T05:56:38.093Z,33.40
2022-08-26T05:57:13.396Z,32.80
2022-08-26T05:57:48.513Z,32.10
2022-08-26T05:58:23.743Z,34.50
2022-08-26T05:58:59.727Z,36.60
2022-08-26T05:59:34.202Z,35.30
2022-08-26T06:00:09.318Z,35.40
2022-08-26T06:00:44.531Z,34.90
2022-08-26T06:01:19.700Z,34.80
2022-08-26T06:01:55.354Z,35.90
2022-08-26T06:02:30.295Z,36.10
2022-08-26T06:03:05.726Z,35.00
2022-08-26T06:03:40.802Z,35.30
2022-08-26T06:04:15.954Z,37.40
2022-08-26T06:04:50.994Z,34.50
2022-08-26T06:05:26.107Z,33.30
2022-08-26T06:06:01.316Z,34.00
2022-08-26T06:06:36.443Z,34.60
2022-08-26T06:07:12.083Z,35.40
2022-08-26T06:07:47.240Z,37.00
2022-08-26T06:08:22.502Z,37.90
2022-08-26T06:09:05.626Z,38.40
2022-08-26T06:09:41.336Z,38.50
2022-08-26T06:10:31.688Z,37.40
2022-08-26T06:10:51.541Z,37.60
2022-08-26T06:11:26.897Z,38.80
2022-08-26T06:12:02.261Z,39.40
2022-08-26T06:12:37.989Z,36.20
2022-08-26T06:13:13.691Z,34.70
2022-08-26T06:13:48.956Z,36.00
2022-08-26T06:14:24.263Z,38.00
2022-08-26T06:14:59.270Z,37.50
2022-08-26T06:15:34.624Z,36.00
2022-08-26T06:16:09.809Z,37.70
2022-08-26T06:16:45.121Z,38.60
2022-08-26T06:17:20.328Z,37.20
2022-08-26T06:17:55.741Z,37.70
2022-08-26T06:18:30.868Z,38.60
2022-08-26T06:19:10.554Z,38.00
2022-08-26T06:19:41.584Z,39.00
2022-08-26T06:20:16.868Z,38.70
2022-08-26T06:20:57.195Z,36.70
2022-08-26T06:21:27.641Z,36.60
2022-08-26T06:22:02.867Z,37.20
2022-08-26T06:22:38.140Z,37.90
2022-08-26T06:23:13.483Z,36.50
2022-08-26T06:23:48.918Z,36.80
2022-08-26T06:24:27.255Z,36.60
2022-08-26T06:24:59.244Z,36.20
2022-08-26T06:25:34.579Z,37.50
2022-08-26T06:26:10.983Z,39.00
2022-08-26T06:26:50.300Z,38.10
2022-08-26T06:27:20.819Z,37.50
2022-08-26T06:27:56.295Z,38.50
2022-08-26T06:28:31.301Z,36.60
2022-08-26T06:29:06.740Z,36.10
2022-08-26T06:29:42.052Z,35.20
2022-08-26T06:30:17.407Z,36.80
2022-08-26T06:30:52.835Z,37.70
2022-08-26T06:31:28.400Z,36.00
2022-08-26T06:32:03.560Z,38.70
2022-08-26T06:32:38.831Z,38.50
2022-08-26T06:33:14.126Z,36.70
2022-08-26T06:33:49.359Z,37.30
2022-08-26T06:34:29.851Z,34.80
2022-08-26T06:34:59.975Z,34.40
2022-08-26T06:35:35.276Z,34.10
2022-08-26T06:36:10.623Z,32.20
2022-08-26T06:36:46.078Z,32.70
2022-08-26T06:37:21.549Z,34.40
2022-08-26T06:37:56.737Z,35.10
2022-08-26T06:38:32.266Z,37.30
2022-08-26T06:39:07.784Z,35.80
2022-08-26T06:39:43.115Z,35.70
2022-08-26T06:40:18.289Z,36.90
2022-08-26T06:40:53.462Z,34.00
2022-08-26T06:41:28.906Z,34.80
2022-08-26T06:42:06.262Z,34.70
2022-08-26T06:42:39.443Z,35.90
2022-08-26T06:43:14.846Z,36.30
2022-08-26T06:43:50.057Z,35.30
2022-08-26T06:44:25.312Z,35.80
2022-08-26T06:45:00.321Z,35.50
2022-08-26T06:45:35.438Z,34.60
2022-08-26T06:46:10.573Z,34.00
2022-08-26T06:46:46.221Z,34.00
2022-08-26T06:47:21.418Z,35.00
2022-08-26T06:47:56.489Z,34.90
2022-08-26T06:48:31.906Z,34.50
2022-08-26T06:49:07.232Z,35.90
2022-08-26T06:49:42.632Z,35.60
2022-08-26T06:50:17.732Z,35.60
2022-08-26T06:50:53.139Z,34.90
2022-08-26T06:51:28.699Z,34.60
2022-08-26T06:52:03.905Z,33.50
2022-08-26T06:52:39.041Z,33.10
2022-08-26T06:53:14.542Z,32.90
2022-08-26T06:53:49.761Z,35.40
2022-08-26T06:54:24.861Z,35.60
2022-08-26T06:55:00.107Z,35.20
2022-08-26T06:55:35.197Z,34.20
2022-08-26T06:56:10.625Z,33.30
2022-08-26T06:56:46.142Z,32.30
2022-08-26T06:57:21.303Z,32.50
2022-08-26T06:57:56.771Z,33.10
2022-08-26T06:58:32.185Z,32.40
2022-08-26T06:59:07.690Z,34.40
2022-08-26T06:59:42.710Z,35.30
2022-08-26T07:00:18.130Z,32.30
2022-08-26T07:00:53.569Z,31.10
2022-08-26T07:01:28.820Z,32.70
2022-08-26T07:02:04.118Z,35.10
2022-08-26T07:02:39.419Z,34.40
2022-08-26T07:03:14.566Z,33.30
2022-08-26T07:03:49.476Z,32.00
2022-08-26T07:04:24.814Z,33.20
2022-08-26T07:05:00.024Z,33.90
2022-08-26T07:05:35.776Z,32.90
2022-08-26T07:06:10.960Z,32.10
2022-08-26T07:06:46.601Z,32.50
2022-08-26T07:07:22.117Z,31.10
2022-08-26T07:07:56.903Z,31.20
2022-08-26T07:08:31.896Z,32.00
2022-08-26T07:09:07.194Z,32.00
2022-08-26T07:09:42.298Z,31.70
2022-08-26T07:10:17.500Z,32.50
2022-08-26T07:10:52.714Z,32.80
2022-08-26T07:11:27.828Z,32.10
2022-08-26T07:12:03.237Z,30.70
2022-08-26T07:12:38.639Z,32.60
2022-08-26T07:13:13.939Z,33.30
2022-08-26T07:13:49.090Z,32.10
2022-08-26T07:14:24.196Z,29.80
2022-08-26T07:14:59.487Z,32.60
2022-08-26T07:15:34.979Z,32.20
2022-08-26T07:16:10.578Z,32.70
2022-08-26T07:16:45.956Z,32.90
2022-08-26T07:17:21.158Z,31.00
2022-08-26T07:17:56.170Z,30.90
2022-08-26T07:18:31.290Z,31.70
2022-08-26T07:19:11.238Z,34.00
2022-08-26T07:19:41.819Z,32.80
2022-08-26T07:20:17.153Z,31.60
2022-08-26T07:20:52.252Z,30.50
2022-08-26T07:21:27.679Z,31.10
2022-08-26T07:22:03.487Z,33.60
2022-08-26T07:22:38.614Z,32.80
2022-08-26T07:23:13.705Z,31.70
2022-08-26T07:23:49.082Z,29.80
2022-08-26T07:24:24.141Z,29.10
2022-08-26T07:24:59.596Z,31.80
2022-08-26T07:25:35.028Z,33.60
2022-08-26T07:26:10.581Z,32.70
2022-08-26T07:26:45.887Z,31.70
2022-08-26T07:27:21.095Z,31.20
2022-08-26T07:27:56.217Z,31.70
2022-08-26T07:28:31.336Z,31.30
2022-08-26T07:29:06.761Z,29.40
2022-08-26T07:29:42.059Z,30.30
2022-08-26T07:30:17.270Z,29.90
2022-08-26T07:30:52.629Z,31.20
2022-08-26T07:31:27.877Z,31.10
2022-08-26T07:32:02.930Z,30.90
2022-08-26T07:32:38.342Z,29.30
2022-08-26T07:33:13.635Z,29.10
2022-08-26T07:33:49.148Z,28.70
2022-08-26T07:34:24.265Z,28.20
2022-08-26T07:34:59.865Z,28.20
2022-08-26T07:35:35.386Z,27.80
2022-08-26T07:36:10.916Z,27.30
2022-08-26T07:36:46.262Z,30.40
2022-08-26T07:37:21.571Z,27.90
2022-08-26T07:37:57.268Z,29.70
2022-08-26T07:38:32.513Z,30.40